createdAt,value
2022-11-28T00:01:20.583Z,17.30
2022-11-28T00:03:47.719Z,14.48
2022-11-28T00:06:14.827Z,15.55
2022-11-28T00:08:41.809Z,15.05
2022-11-28T00:11:10.548Z,19.25
2022-11-28T00:13:37.798Z,15.40
2022-11-28T00:16:07.134Z,19.45
2022-11-28T00:18:33.992Z,18.27
2022-11-28T00:21:07.680Z,19.35
2022-11-28T00:23:35.264Z,17.05
2022-11-28T00:26:08.320Z,14.40
2022-11-28T00:28:35.191Z,18.00
2022-11-28T00:31:02.163Z,17.48
2022-11-28T00:33:29.019Z,17.70
2022-11-28T00:36:04.185Z,17.17
2022-11-28T00:38:31.316Z,17.42
2022-11-28T00:41:02.465Z,19.40
2022-11-28T00:43:29.491Z,16.45
2022-11-28T00:45:56.811Z,14.07
2022-11-28T00:48:24.429Z,19.98
2022-11-28T00:50:51.931Z,18.02
2022-11-28T00:53:18.703Z,16.77
2022-11-28T00:55:45.482Z,15.80
2022-11-28T00:58:12.217Z,18.50
2022-11-28T01:00:39.318Z,20.77
2022-11-28T01:03:06.240Z,18.25
2022-11-28T01:05:33.018Z,15.35
2022-11-28T01:07:59.839Z,15.93
2022-11-28T01:10:27.217Z,20.55
2022-11-28T01:12:54.063Z,18.63
2022-11-28T01:15:20.928Z,17.08
2022-11-28T01:17:47.739Z,18.58
2022-11-28T01:20:14.964Z,17.85
2022-11-28T01:22:41.828Z,19.42
2022-11-28T01:25:08.727Z,20.90
2022-11-28T01:27:35.494Z,21.30
2022-11-28T01:30:02.280Z,20.40
2022-11-28T01:32:29.077Z,19.88
2022-11-28T01:34:55.796Z,20.58
2022-11-28T01:37:22.553Z,21.73
2022-11-28T01:39:49.293Z,23.95
2022-11-28T01:42:20.265Z,20.20
2022-11-28T01:44:49.990Z,22.35
2022-11-28T01:47:22.260Z,19.25
2022-11-28T01:49:50.684Z,23.05
2022-11-28T01:52:20.318Z,26.00
2022-11-28T01:54:55.097Z,18.17
2022-11-28T01:57:24.828Z,25.40
2022-11-28T02:00:03.028Z,25.42
2022-11-28T02:02:35.691Z,22.40
2022-11-28T02:05:02.660Z,21.67
2022-11-28T02:07:29.519Z,21.98
2022-11-28T02:09:57.062Z,25.45
2022-11-28T02:12:50.106Z,22.88
2022-11-28T02:15:38.062Z,23.10
2022-11-28T02:18:27.681Z,19.45
2022-11-28T02:21:00.451Z,24.85
2022-11-28T02:23:56.612Z,24.77
2022-11-28T02:27:18.754Z,19.55
2022-11-28T02:30:06.837Z,18.23
2022-11-28T02:32:56.788Z,18.48
2022-11-28T02:35:34.535Z,17.00
2022-11-28T02:38:30.316Z,19.42
2022-11-28T02:41:31.159Z,18.75
2022-11-28T02:44:17.926Z,18.40
2022-11-28T02:46:58.586Z,18.65
2022-11-28T02:49:45.112Z,18.15
2022-11-28T02:52:40.965Z,20.50
2022-11-28T02:55:09.004Z,23.45
2022-11-28T02:57:38.441Z,18.65
2022-11-28T03:00:43.695Z,21.23
2022-11-28T03:03:54.678Z,20.65
2022-11-28T03:06:21.421Z,16.30
2022-11-28T03:09:18.553Z,17.20
2022-11-28T03:12:10.117Z,17.17
2022-11-28T03:15:02.056Z,19.33
2022-11-28T03:17:53.096Z,19.20
2022-11-28T03:20:44.317Z,19.25
2022-11-28T03:23:11.233Z,19.70
2022-11-28T03:25:58.271Z,20.48
2022-11-28T03:28:43.214Z,17.02
2022-11-28T03:31:12.880Z,15.52
2022-11-28T03:33:44.733Z,15.73
2022-11-28T03:36:22.237Z,16.55
2022-11-28T03:38:54.222Z,19.10
2022-11-28T03:41:43.059Z,17.70
2022-11-28T03:44:18.366Z,19.50
2022-11-28T03:46:49.618Z,17.80
2022-11-28T03:49:24.866Z,17.13
2022-11-28T03:52:06.711Z,18.60
2022-11-28T03:54:40.519Z,18.55
2022-11-28T03:57:24.040Z,20.08
2022-11-28T03:59:54.086Z,19.63
2022-11-28T04:02:39.950Z,23.30
2022-11-28T04:05:32.242Z,20.05
2022-11-28T04:08:11.540Z,16.58
2022-11-28T04:10:44.759Z,21.33
2022-11-28T04:13:21.527Z,17.35
2022-11-28T04:16:06.983Z,17.77
2022-11-28T04:18:48.752Z,17.52
2022-11-28T04:21:20.587Z,19.98
2022-11-28T04:23:49.832Z,14.48
2022-11-28T04:26:27.199Z,16.40
2022-11-28T04:28:57.355Z,17.42
2022-11-28T04:31:26.030Z,20.85
2022-11-28T04:33:58.444Z,19.65
2022-11-28T04:36:27.031Z,21.13
2022-11-28T04:38:57.404Z,16.85
2022-11-28T04:41:35.811Z,21.05
2022-11-28T04:44:44.384Z,19.83
2022-11-28T04:47:11.783Z,17.30
2022-11-28T04:49:39.242Z,16.67
2022-11-28T04:52:23.218Z,19.90
2022-11-28T04:54:56.134Z,21.33
2022-11-28T04:59:50.846Z,21.58
2022-11-28T05:02:19.517Z,20.85
2022-11-28T05:04:46.381Z,20.77
2022-11-28T05:07:13.675Z,22.92
2022-11-28T05:09:40.621Z,17.25
2022-11-28T05:12:07.861Z,20.00
2022-11-28T05:14:34.656Z,19.50
2022-11-28T05:17:01.520Z,19.85
2022-11-28T05:19:28.281Z,20.83
2022-11-28T05:21:55.027Z,18.90
2022-11-28T05:24:22.553Z,17.23
2022-11-28T05:26:49.694Z,19.70
2022-11-28T05:29:16.860Z,22.50
2022-11-28T05:31:43.637Z,22.23
2022-11-28T05:34:10.462Z,21.25
2022-11-28T05:36:37.153Z,20.48
2022-11-28T05:39:03.981Z,18.50
2022-11-28T05:41:32.259Z,24.05
2022-11-28T05:44:00.408Z,21.13
2022-11-28T05:46:29.172Z,21.38
2022-11-28T05:48:57.057Z,17.40
2022-11-28T05:51:24.173Z,19.88
2022-11-28T05:53:51.165Z,20.65
2022-11-28T05:56:19.754Z,20.63
2022-11-28T05:58:46.892Z,17.45
2022-11-28T06:01:14.829Z,18.98
2022-11-28T06:03:42.553Z,19.10
2022-11-28T06:06:13.863Z,18.80
2022-11-28T06:08:41.235Z,22.73
2022-11-28T06:11:08.810Z,20.52
2022-11-28T06:13:35.885Z,19.25
2022-11-28T06:16:03.343Z,20.58
2022-11-28T06:18:30.171Z,18.77
2022-11-28T06:20:56.933Z,27.70
2022-11-28T06:23:24.271Z,20.50
2022-11-28T06:25:51.045Z,21.10
2022-11-28T06:28:17.813Z,21.25
2022-11-28T06:30:44.640Z,22.10
2022-11-28T06:33:11.520Z,21.85
2022-11-28T06:35:38.241Z,20.65
2022-11-28T06:38:05.794Z,23.80
2022-11-28T06:40:34.658Z,21.77
2022-11-28T06:43:01.387Z,26.02
2022-11-28T06:45:28.190Z,26.45
2022-11-28T06:47:54.980Z,21.50
2022-11-28T06:50:21.682Z,22.08
2022-11-28T06:52:48.456Z,24.45
2022-11-28T06:55:15.343Z,29.38
2022-11-28T06:57:42.116Z,24.00
2022-11-28T07:00:09.325Z,30.10
2022-11-28T07:02:36.076Z,23.77
2022-11-28T07:05:02.895Z,23.33
2022-11-28T07:07:29.691Z,28.20
2022-11-28T07:09:56.433Z,28.00
2022-11-28T07:12:23.316Z,21.17
2022-11-28T07:14:50.104Z,25.67
2022-11-28T07:17:17.175Z,22.20
2022-11-28T07:19:44.342Z,24.33
2022-11-28T07:22:11.868Z,21.02
2022-11-28T07:24:38.659Z,20.67
2022-11-28T07:27:05.377Z,19.40
2022-11-28T07:29:36.458Z,21.40
2022-11-28T07:32:05.808Z,23.33
2022-11-28T07:34:33.249Z,22.88
2022-11-28T07:37:00.164Z,21.73
2022-11-28T07:39:27.451Z,21.73
2022-11-28T07:41:54.168Z,21.30
2022-11-28T07:44:20.881Z,22.27
2022-11-28T07:46:47.861Z,23.85
2022-11-28T07:49:15.200Z,23.98
2022-11-28T07:51:42.375Z,23.35
2022-11-28T07:54:09.566Z,22.67
2022-11-28T07:57:11.647Z,22.83
2022-11-28T07:59:24.858Z,25.02
2022-11-28T08:01:53.690Z,27.83
2022-11-28T08:04:21.055Z,24.20
2022-11-28T08:06:47.975Z,27.67
2022-11-28T08:09:14.831Z,23.40
2022-11-28T08:11:41.916Z,22.23
2022-11-28T08:14:09.251Z,24.70
2022-11-28T08:16:36.890Z,20.25
2022-11-28T08:19:03.847Z,21.52
2022-11-28T08:21:32.409Z,23.75
2022-11-28T08:24:01.007Z,24.38
2022-11-28T08:26:30.636Z,22.17
2022-11-28T08:28:58.949Z,24.50
2022-11-28T08:31:32.001Z,24.13
2022-11-28T08:34:01.013Z,23.80
2022-11-28T08:36:29.295Z,24.15
2022-11-28T08:39:16.513Z,20.85
2022-11-28T08:41:43.569Z,22.27
2022-11-28T08:44:10.387Z,29.25
2022-11-28T08:46:37.134Z,24.73
2022-11-28T08:49:04.699Z,30.25
2022-11-28T08:51:32.077Z,21.23
2022-11-28T08:53:59.948Z,22.65
2022-11-28T08:56:27.454Z,22.40
2022-11-28T08:58:55.182Z,25.05
2022-11-28T09:01:25.294Z,24.27
2022-11-28T09:03:53.326Z,23.00
2022-11-28T09:06:21.718Z,24.75
2022-11-28T09:08:49.996Z,23.35
2022-11-28T09:11:18.925Z,25.75
2022-11-28T09:13:46.120Z,21.63
2022-11-28T09:16:14.449Z,23.38
2022-11-28T09:18:41.494Z,20.65
2022-11-28T09:21:11.958Z,19.85
2022-11-28T09:23:41.081Z,21.63
2022-11-28T09:26:19.746Z,24.10
2022-11-28T09:28:47.613Z,18.98
2022-11-28T09:31:15.943Z,19.83
2022-11-28T09:33:43.641Z,20.13
2022-11-28T09:36:17.094Z,19.77
2022-11-28T09:38:44.250Z,26.35
2022-11-28T09:41:41.073Z,21.83
2022-11-28T09:44:13.710Z,18.35
2022-11-28T09:46:41.611Z,21.38
2022-11-28T09:49:40.792Z,18.63
2022-11-28T09:52:17.022Z,19.13
2022-11-28T09:54:47.141Z,18.98
2022-11-28T09:57:29.789Z,18.00
2022-11-28T09:59:56.551Z,16.08
2022-11-28T10:02:39.281Z,16.77
2022-11-28T10:05:17.051Z,21.85
2022-11-28T10:08:10.324Z,18.85
2022-11-28T10:11:00.111Z,15.90
2022-11-28T10:14:07.749Z,17.38
2022-11-28T10:17:09.991Z,14.60
2022-11-28T10:19:54.226Z,17.05
2022-11-28T10:22:42.078Z,16.42
2022-11-28T10:25:17.321Z,17.58
2022-11-28T10:27:44.334Z,19.00
2022-11-28T10:30:26.374Z,16.05
2022-11-28T10:33:25.251Z,18.17
2022-11-28T10:36:03.209Z,17.10
2022-11-28T10:38:34.129Z,19.63
2022-11-28T10:41:34.576Z,19.33
2022-11-28T10:44:15.808Z,21.92
2022-11-28T10:47:10.628Z,22.70
2022-11-28T10:50:13.856Z,24.05
2022-11-28T10:52:53.801Z,19.50
2022-11-28T10:55:40.998Z,24.77
2022-11-28T10:58:16.533Z,26.17
2022-11-28T11:00:45.522Z,21.30
2022-11-28T11:03:16.201Z,21.75
2022-11-28T11:05:43.370Z,24.60
2022-11-28T11:08:23.558Z,23.45
2022-11-28T11:10:54.894Z,24.08
2022-11-28T11:13:27.326Z,20.98
2022-11-28T11:16:05.090Z,24.60
2022-11-28T11:18:42.712Z,26.15
2022-11-28T11:21:27.959Z,22.67
2022-11-28T11:24:17.260Z,25.20
2022-11-28T11:26:47.661Z,23.42
2022-11-28T11:29:35.343Z,25.58
2022-11-28T11:32:06.113Z,25.02
2022-11-28T11:34:44.136Z,24.88
2022-11-28T11:37:28.927Z,21.48
2022-11-28T11:39:55.687Z,24.10
2022-11-28T11:42:27.981Z,22.73
2022-11-28T11:44:55.582Z,23.80
2022-11-28T11:47:41.949Z,22.95
2022-11-28T11:50:20.394Z,22.20
2022-11-28T11:53:12.608Z,18.23
2022-11-28T11:55:49.478Z,24.73
2022-11-28T11:58:21.768Z,21.08
2022-11-28T12:00:48.686Z,21.45
2022-11-28T12:03:25.704Z,21.05
2022-11-28T12:06:14.246Z,25.05
2022-11-28T12:08:53.800Z,19.48
2022-11-28T12:11:45.473Z,18.83
2022-11-28T12:14:33.050Z,22.27
2022-11-28T12:17:48.642Z,19.33
2022-11-28T12:20:35.010Z,22.38
2022-11-28T12:23:07.490Z,21.90
2022-11-28T12:25:44.360Z,16.77
2022-11-28T12:28:59.641Z,25.20
2022-11-28T12:31:50.266Z,23.50
2022-11-28T12:34:38.887Z,26.13
2022-11-28T12:37:37.325Z,22.27
2022-11-28T12:40:28.737Z,18.13
2022-11-28T12:43:21.313Z,23.67
2022-11-28T12:46:12.616Z,25.50
2022-11-28T12:49:17.493Z,19.77
2022-11-28T12:52:38.504Z,17.15
2022-11-28T12:55:08.082Z,15.23
2022-11-28T12:57:38.908Z,20.83
2022-11-28T13:00:18.541Z,17.70
2022-11-28T13:02:51.306Z,22.33
2022-11-28T13:06:16.441Z,16.90
2022-11-28T13:08:55.319Z,21.88
2022-11-28T13:11:40.286Z,23.77
2022-11-28T13:14:34.945Z,19.27
2022-11-28T13:17:22.155Z,23.27
2022-11-28T13:20:07.402Z,25.63
2022-11-28T13:22:39.438Z,19.95
2022-11-28T13:25:50.066Z,18.42
2022-11-28T13:28:47.845Z,19.00
2022-11-28T13:31:38.377Z,21.95
2022-11-28T13:34:11.222Z,19.02
2022-11-28T13:40:05.064Z,22.00
2022-11-28T13:43:06.490Z,20.88
2022-11-28T13:45:39.346Z,21.73
2022-11-28T13:48:57.581Z,18.02
2022-11-28T13:51:28.613Z,20.27
2022-11-28T13:54:19.312Z,20.17
2022-11-28T13:57:07.306Z,18.73
2022-11-28T13:59:34.787Z,16.27
2022-11-28T14:02:05.096Z,21.58
2022-11-28T14:04:32.917Z,19.70
2022-11-28T14:07:04.186Z,25.10
2022-11-28T14:09:33.682Z,17.92
2022-11-28T14:12:27.816Z,18.55
2022-11-28T14:15:18.628Z,24.55
2022-11-28T14:18:48.289Z,17.98
2022-11-28T14:21:11.293Z,21.45
2022-11-28T14:23:40.720Z,23.50
2022-11-28T14:26:24.476Z,21.13
2022-11-28T14:28:51.877Z,24.67
2022-11-28T14:31:38.912Z,26.73
2022-11-28T14:34:25.677Z,31.30
2022-11-28T14:37:21.355Z,24.63
2022-11-28T14:39:49.492Z,21.58
2022-11-28T14:42:36.762Z,23.33
2022-11-28T14:45:24.274Z,25.98
2022-11-28T14:48:28.652Z,26.95
2022-11-28T14:51:01.286Z,20.50
2022-11-28T14:53:44.424Z,20.40
2022-11-28T14:56:28.032Z,20.23
2022-11-28T14:59:01.945Z,19.08
2022-11-28T15:01:45.563Z,23.25
2022-11-28T15:04:37.794Z,19.63
2022-11-28T15:07:15.156Z,18.05
2022-11-28T15:10:01.630Z,20.80
2022-11-28T15:12:45.681Z,22.60
2022-11-28T15:15:14.520Z,21.55
2022-11-28T15:17:43.996Z,18.23
2022-11-28T15:20:36.602Z,20.60
2022-11-28T15:23:03.459Z,19.83
2022-11-28T15:25:37.394Z,22.60
2022-11-28T15:28:14.803Z,19.52
2022-11-28T15:30:53.329Z,27.58
2022-11-28T15:33:21.167Z,19.70
2022-11-28T15:36:01.082Z,20.63
2022-11-28T15:38:29.927Z,24.75
2022-11-28T15:40:57.900Z,22.88
2022-11-28T15:43:25.472Z,20.45
2022-11-28T15:45:58.448Z,21.38
2022-11-28T15:50:55.385Z,21.77
2022-11-28T15:53:22.775Z,23.73
2022-11-28T15:56:19.177Z,19.20
2022-11-28T15:58:51.754Z,25.55
2022-11-28T16:01:22.942Z,19.38
2022-11-28T16:04:07.102Z,21.60
2022-11-28T16:06:39.820Z,20.10
2022-11-28T16:09:23.407Z,18.63
2022-11-28T16:11:52.907Z,21.13
2022-11-28T16:14:43.148Z,19.63
2022-11-28T16:17:18.972Z,19.27
2022-11-28T16:19:46.222Z,17.75
2022-11-28T16:22:19.667Z,20.60
2022-11-28T16:24:49.147Z,19.25
2022-11-28T16:27:37.295Z,19.83
2022-11-28T16:30:42.700Z,22.75
2022-11-28T16:33:57.504Z,21.30
2022-11-28T16:36:37.182Z,17.63
2022-11-28T16:39:12.654Z,22.45
2022-11-28T16:42:00.836Z,23.88
2022-11-28T16:44:28.161Z,22.25
2022-11-28T16:46:57.039Z,19.27
2022-11-28T16:49:40.248Z,19.83
2022-11-28T16:54:52.081Z,26.23
2022-11-28T16:57:20.252Z,23.95
2022-11-28T16:59:48.669Z,22.65
2022-11-28T17:02:21.351Z,21.40
2022-11-28T17:04:49.726Z,26.73
2022-11-28T17:07:23.974Z,26.52
2022-11-28T17:09:50.957Z,24.10
2022-11-28T17:12:25.232Z,24.17
2022-11-28T17:14:52.354Z,23.45
2022-11-28T17:17:23.131Z,22.08
2022-11-28T17:19:50.393Z,20.33
2022-11-28T17:22:20.903Z,24.45
2022-11-28T17:24:49.463Z,22.08
2022-11-28T17:27:16.276Z,20.67
2022-11-28T17:29:43.622Z,21.30
2022-11-28T17:32:14.262Z,20.50
2022-11-28T17:34:43.639Z,20.35
2022-11-28T17:37:10.705Z,21.02
2022-11-28T17:39:38.030Z,21.80
2022-11-28T17:42:06.181Z,22.23
2022-11-28T17:44:36.143Z,25.52
2022-11-28T17:47:03.272Z,24.73
2022-11-28T17:49:33.851Z,21.27
2022-11-28T17:52:00.694Z,20.25
2022-11-28T17:54:27.818Z,19.83
2022-11-28T17:56:54.771Z,21.27
2022-11-28T17:59:23.114Z,28.63
2022-11-28T18:01:50.164Z,22.27
2022-11-28T18:04:17.800Z,21.00
2022-11-28T18:06:45.792Z,19.02
2022-11-28T18:09:13.831Z,21.25
2022-11-28T18:11:41.639Z,21.73
2022-11-28T18:14:08.566Z,28.08
2022-11-28T18:16:40.048Z,27.45
2022-11-28T18:19:07.088Z,29.45
2022-11-28T18:21:33.919Z,24.02
2022-11-28T18:24:00.735Z,25.83
2022-11-28T18:26:27.928Z,25.10
2022-11-28T18:28:55.012Z,26.65
2022-11-28T18:31:27.348Z,22.80
2022-11-28T18:34:00.318Z,25.42
2022-11-28T18:36:30.731Z,28.90
2022-11-28T18:39:03.195Z,25.75
2022-11-28T18:41:30.355Z,30.67
2022-11-28T18:44:02.005Z,27.98
2022-11-28T18:46:29.744Z,26.98
2022-11-28T18:48:57.149Z,27.90
2022-11-28T18:51:32.775Z,31.23
2022-11-28T18:54:01.828Z,25.67
2022-11-28T18:56:29.318Z,23.83
2022-11-28T18:58:57.607Z,25.00
2022-11-28T19:01:30.625Z,21.45
2022-11-28T19:04:09.415Z,24.50
2022-11-28T19:06:37.481Z,23.02
2022-11-28T19:09:06.979Z,23.25
2022-11-28T19:11:34.304Z,28.63
2022-11-28T19:14:01.168Z,25.98
2022-11-28T19:16:35.115Z,30.52
2022-11-28T19:19:02.640Z,27.48
2022-11-28T19:21:32.739Z,24.05
2022-11-28T19:24:00.821Z,23.88
2022-11-28T19:26:29.807Z,22.88
2022-11-28T19:28:57.257Z,27.77
2022-11-28T19:31:29.567Z,26.90
2022-11-28T19:34:01.518Z,37.70
2022-11-28T19:36:34.744Z,29.95
2022-11-28T19:39:02.463Z,29.48
2022-11-28T19:41:30.020Z,26.90
2022-11-28T19:43:57.339Z,26.88
2022-11-28T19:46:24.127Z,29.30
2022-11-28T19:48:51.837Z,25.20
2022-11-28T19:51:19.176Z,30.02
2022-11-28T19:53:45.905Z,27.02
2022-11-28T19:56:18.319Z,26.05
2022-11-28T19:58:46.359Z,25.42
2022-11-28T20:01:23.422Z,25.33
2022-11-28T20:03:51.381Z,28.58
2022-11-28T20:06:19.663Z,26.33
2022-11-28T20:08:46.838Z,32.25
2022-11-28T20:11:16.980Z,25.08
2022-11-28T20:13:44.991Z,29.02
2022-11-28T20:16:13.868Z,25.52
2022-11-28T20:18:42.629Z,26.25
2022-11-28T20:21:15.568Z,26.40
2022-11-28T20:26:15.019Z,28.75
2022-11-28T20:28:44.000Z,26.75
2022-11-28T20:31:38.253Z,33.72
2022-11-28T20:34:06.517Z,29.15
2022-11-28T20:36:33.451Z,30.95
2022-11-28T20:39:00.354Z,31.60
2022-11-28T20:41:28.333Z,28.48
2022-11-28T20:43:55.102Z,27.13
2022-11-28T20:46:28.092Z,26.42
2022-11-28T20:51:27.384Z,32.58
2022-11-28T20:53:54.987Z,28.75
2022-11-28T20:56:24.898Z,28.15
2022-11-28T20:58:51.984Z,28.25
2022-11-28T21:01:21.700Z,34.30
2022-11-28T21:03:48.728Z,35.53
2022-11-28T21:06:15.542Z,24.95
2022-11-28T21:08:42.624Z,27.05
2022-11-28T21:11:43.531Z,29.20
2022-11-28T21:14:05.920Z,28.92
2022-11-28T21:16:34.085Z,28.63
2022-11-28T21:19:07.342Z,29.83
2022-11-28T21:21:35.689Z,26.50
2022-11-28T21:24:06.218Z,31.35
2022-11-28T21:26:39.177Z,32.55
2022-11-28T21:29:09.143Z,26.33
2022-11-28T21:31:39.688Z,24.92
2022-11-28T21:34:06.464Z,31.98
2022-11-28T21:36:33.242Z,26.75
2022-11-28T21:39:01.721Z,27.35
2022-11-28T21:41:30.715Z,25.90
2022-11-28T21:43:58.247Z,24.30
2022-11-28T21:46:26.269Z,28.30
2022-11-28T21:48:53.662Z,27.20
2022-11-28T21:51:23.125Z,27.90
2022-11-28T21:53:50.026Z,29.08
2022-11-28T21:56:17.917Z,29.02
2022-11-28T21:58:44.703Z,29.58
2022-11-28T22:01:13.123Z,34.10
2022-11-28T22:03:40.969Z,27.42
2022-11-28T22:06:23.434Z,27.38
2022-11-28T22:08:51.605Z,25.42
2022-11-28T22:11:19.717Z,23.15
2022-11-28T22:13:47.739Z,22.92
2022-11-28T22:16:20.768Z,23.73
2022-11-28T22:18:48.922Z,22.05
2022-11-28T22:24:03.507Z,25.35
2022-11-28T22:26:30.237Z,25.08
2022-11-28T22:28:58.711Z,23.90
2022-11-28T22:31:25.571Z,23.15
2022-11-28T22:33:52.342Z,20.65
2022-11-28T22:36:20.916Z,19.42
2022-11-28T22:38:53.540Z,23.77
2022-11-28T22:41:28.383Z,26.08
2022-11-28T22:43:57.654Z,21.83
2022-11-28T22:46:24.528Z,21.40
2022-11-28T22:48:52.026Z,22.30
2022-11-28T22:51:21.889Z,20.98
2022-11-28T22:53:52.328Z,24.30
2022-11-28T22:56:19.047Z,24.23
2022-11-28T22:58:45.980Z,24.70
2022-11-28T23:01:18.780Z,24.13
2022-11-28T23:03:46.128Z,22.38
2022-11-28T23:06:15.432Z,20.60
2022-11-28T23:08:42.893Z,21.55
2022-11-28T23:11:13.347Z,22.30
2022-11-28T23:13:41.102Z,25.02
2022-11-28T23:16:10.308Z,21.67
2022-11-28T23:18:37.119Z,20.10
2022-11-28T23:21:04.327Z,21.92
2022-11-28T23:23:32.425Z,21.23
2022-11-28T23:26:07.137Z,20.98
2022-11-28T23:28:35.043Z,20.15
2022-11-28T23:31:30.010Z,23.10
2022-11-28T23:33:57.901Z,22.02
2022-11-28T23:36:30.227Z,23.38
2022-11-28T23:41:26.023Z,22.23
2022-11-28T23:43:52.790Z,20.20
2022-11-28T23:46:20.916Z,20.50
2022-11-28T23:48:47.998Z,19.77
2022-11-28T23:51:16.453Z,18.60
2022-11-28T23:53:43.872Z,24.67
2022-11-28T23:56:37.958Z,22.52
2022-11-28T23:59:07.531Z,20.05
